sensor_id;sensor_type;location;lat;lon;timestamp;pressure;altitude;pressure_sealevel;temperature;humidity
15914;BME280;8055;51.930;8.840;2023-08-06T00:01:11;74895.69;;;-145.72;100.00
15914;BME280;8055;51.930;8.840;2023-08-06T00:03:36;74897.78;;;-145.72;100.00
15914;BME280;8055;51.930;8.840;2023-08-06T00:06:02;74901.91;;;-145.72;100.00
15914;BME280;8055;51.930;8.840;2023-08-06T00:08:27;74889.50;;;-145.72;100.00
15914;BME280;8055;51.930;8.840;2023-08-06T00:10:53;74891.56;;;-145.72;100.00
15914;BME280;8055;51.930;8.840;2023-08-06T00:13:18;74889.50;;;-145.72;100.00
15914;BME280;8055;51.930;8.840;2023-08-06T00:15:44;74895.69;;;-145.72;100.00
15914;BME280;8055;51.930;8.840;2023-08-06T00:18:09;74897.78;;;-145.72;100.00
15914;BME280;8055;51.930;8.840;2023-08-06T00:20:35;74897.78;;;-145.72;100.00
15914;BME280;8055;51.930;8.840;2023-08-06T00:23:00;74891.56;;;-145.72;100.00
15914;BME280;8055;51.930;8.840;2023-08-06T00:25:25;74891.56;;;-145.72;100.00
15914;BME280;8055;51.930;8.840;2023-08-06T00:27:51;74891.56;;;-145.72;100.00
15914;BME280;8055;51.930;8.840;2023-08-06T00:30:16;74895.69;;;-145.72;100.00
15914;BME280;8055;51.930;8.840;2023-08-06T00:32:41;74889.50;;;-145.72;100.00
15914;BME280;8055;51.930;8.840;2023-08-06T00:35:07;74889.50;;;-145.72;100.00
15914;BME280;8055;51.930;8.840;2023-08-06T00:37:32;74885.34;;;-145.72;100.00
15914;BME280;8055;51.930;8.840;2023-08-06T00:39:58;74881.22;;;-145.72;100.00
15914;BME280;8055;51.930;8.840;2023-08-06T00:42:23;74881.22;;;-145.72;100.00
15914;BME280;8055;51.930;8.840;2023-08-06T00:44:48;74883.28;;;-145.72;100.00
15914;BME280;8055;51.930;8.840;2023-08-06T00:47:14;74883.28;;;-145.72;100.00
15914;BME280;8055;51.930;8.840;2023-08-06T00:49:40;74872.94;;;-145.72;100.00
15914;BME280;8055;51.930;8.840;2023-08-06T00:52:06;74872.94;;;-145.72;100.00
15914;BME280;8055;51.930;8.840;2023-08-06T00:54:34;74870.88;;;-145.72;100.00
15914;BME280;8055;51.930;8.840;2023-08-06T00:57:01;74868.81;;;-145.72;100.00
15914;BME280;8055;51.930;8.840;2023-08-06T00:59:27;74872.94;;;-145.72;100.00
15914;BME280;8055;51.930;8.840;2023-08-06T01:01:53;74870.88;;;-145.72;100.00
15914;BME280;8055;51.930;8.840;2023-08-06T01:04:18;74866.75;;;-145.72;100.00
15914;BME280;8055;51.930;8.840;2023-08-06T01:09:49;74848.13;;;-145.72;100.00
15914;BME280;8055;51.930;8.840;2023-08-06T01:12:37;74850.19;;;-145.72;100.00
15914;BME280;8055;51.930;8.840;2023-08-06T01:15:25;74846.06;;;-145.72;100.00
15914;BME280;8055;51.930;8.840;2023-08-06T01:17:53;74848.13;;;-145.72;100.00
15914;BME280;8055;51.930;8.840;2023-08-06T01:20:18;74837.78;;;-145.72;100.00
15914;BME280;8055;51.930;8.840;2023-08-06T01:22:44;74839.84;;;-145.72;100.00
15914;BME280;8055;51.930;8.840;2023-08-06T01:25:09;74839.84;;;-145.72;100.00
15914;BME280;8055;51.930;8.840;2023-08-06T01:27:54;74835.72;;;-145.72;100.00
15914;BME280;8055;51.930;8.840;2023-08-06T01:30:30;74839.84;;;-145.72;100.00
15914;BME280;8055;51.930;8.840;2023-08-06T01:33:04;74848.13;;;-145.72;100.00
15914;BME280;8055;51.930;8.840;2023-08-06T01:35:29;74841.91;;;-145.72;100.00
15914;BME280;8055;51.930;8.840;2023-08-06T01:37:55;74843.97;;;-145.72;100.00
15914;BME280;8055;51.930;8.840;2023-08-06T01:40:21;74848.13;;;-145.72;100.00
15914;BME280;8055;51.930;8.840;2023-08-06T01:42:46;74839.84;;;-145.72;100.00
15914;BME280;8055;51.930;8.840;2023-08-06T01:45:12;74835.72;;;-145.72;100.00
15914;BME280;8055;51.930;8.840;2023-08-06T01:47:37;74835.72;;;-145.72;100.00
15914;BME280;8055;51.930;8.840;2023-08-06T01:50:03;74831.56;;;-145.72;100.00
15914;BME280;8055;51.930;8.840;2023-08-06T01:52:28;74827.44;;;-145.72;100.00
15914;BME280;8055;51.930;8.840;2023-08-06T01:54:54;74823.28;;;-145.72;100.00
15914;BME280;8055;51.930;8.840;2023-08-06T01:57:19;74829.50;;;-145.72;100.00
15914;BME280;8055;51.930;8.840;2023-08-06T01:59:45;74821.22;;;-145.72;100.00
15914;BME280;8055;51.930;8.840;2023-08-06T02:02:10;74819.16;;;-145.72;100.00
15914;BME280;8055;51.930;8.840;2023-08-06T02:04:35;74819.16;;;-145.72;100.00
15914;BME280;8055;51.930;8.840;2023-08-06T02:07:01;74817.09;;;-145.72;100.00
15914;BME280;8055;51.930;8.840;2023-08-06T02:09:26;74825.38;;;-145.72;100.00
15914;BME280;8055;51.930;8.840;2023-08-06T02:11:52;74823.28;;;-145.72;100.00
15914;BME280;8055;51.930;8.840;2023-08-06T02:14:17;74825.38;;;-145.72;100.00
15914;BME280;8055;51.930;8.840;2023-08-06T02:16:42;74825.38;;;-145.72;100.00
15914;BME280;8055;51.930;8.840;2023-08-06T02:19:08;74831.56;;;-145.72;100.00
15914;BME280;8055;51.930;8.840;2023-08-06T02:21:33;74827.44;;;-145.72;100.00
15914;BME280;8055;51.930;8.840;2023-08-06T02:23:58;74831.56;;;-145.72;100.00
15914;BME280;8055;51.930;8.840;2023-08-06T02:26:24;74835.72;;;-145.72;100.00
15914;BME280;8055;51.930;8.840;2023-08-06T02:28:49;74831.56;;;-145.72;100.00
15914;BME280;8055;51.930;8.840;2023-08-06T02:31:14;74846.06;;;-145.72;100.00
15914;BME280;8055;51.930;8.840;2023-08-06T02:33:40;74843.97;;;-145.72;100.00
15914;BME280;8055;51.930;8.840;2023-08-06T02:36:05;74841.91;;;-145.72;100.00
15914;BME280;8055;51.930;8.840;2023-08-06T02:38:31;74839.84;;;-145.72;100.00
15914;BME280;8055;51.930;8.840;2023-08-06T02:40:57;74843.97;;;-145.72;100.00
15914;BME280;8055;51.930;8.840;2023-08-06T02:43:22;74837.78;;;-145.72;100.00
15914;BME280;8055;51.930;8.840;2023-08-06T02:45:48;74841.91;;;-145.72;100.00
15914;BME280;8055;51.930;8.840;2023-08-06T02:48:13;74843.97;;;-145.72;100.00
15914;BME280;8055;51.930;8.840;2023-08-06T02:50:39;74841.91;;;-145.72;100.00
15914;BME280;8055;51.930;8.840;2023-08-06T02:53:06;74848.13;;;-145.72;100.00
15914;BME280;8055;51.930;8.840;2023-08-06T02:55:32;74843.97;;;-145.72;100.00
15914;BME280;8055;51.930;8.840;2023-08-06T02:57:58;74850.19;;;-145.72;100.00
15914;BME280;8055;51.930;8.840;2023-08-06T03:00:24;74846.06;;;-145.72;100.00
15914;BME280;8055;51.930;8.840;2023-08-06T03:02:49;74837.78;;;-145.72;100.00
15914;BME280;8055;51.930;8.840;2023-08-06T03:05:14;74835.72;;;-145.72;100.00
15914;BME280;8055;51.930;8.840;2023-08-06T03:07:40;74839.84;;;-145.72;100.00
15914;BME280;8055;51.930;8.840;2023-08-06T03:10:06;74829.50;;;-145.72;100.00
15914;BME280;8055;51.930;8.840;2023-08-06T03:12:31;74827.44;;;-145.72;100.00
15914;BME280;8055;51.930;8.840;2023-08-06T03:14:56;74831.56;;;-145.72;100.00
15914;BME280;8055;51.930;8.840;2023-08-06T03:17:22;74827.44;;;-145.72;100.00
15914;BME280;8055;51.930;8.840;2023-08-06T03:19:47;74823.28;;;-145.72;100.00
15914;BME280;8055;51.930;8.840;2023-08-06T03:22:13;74819.16;;;-145.72;100.00
15914;BME280;8055;51.930;8.840;2023-08-06T03:24:38;74829.50;;;-145.72;100.00
15914;BME280;8055;51.930;8.840;2023-08-06T03:27:03;74821.22;;;-145.72;100.00
15914;BME280;8055;51.930;8.840;2023-08-06T03:29:29;74823.28;;;-145.72;100.00
15914;BME280;8055;51.930;8.840;2023-08-06T03:31:54;74823.28;;;-145.72;100.00
15914;BME280;8055;51.930;8.840;2023-08-06T03:34:19;74831.56;;;-145.72;100.00
15914;BME280;8055;51.930;8.840;2023-08-06T03:36:45;74831.56;;;-145.72;100.00
15914;BME280;8055;51.930;8.840;2023-08-06T03:39:10;74829.50;;;-145.72;100.00
15914;BME280;8055;51.930;8.840;2023-08-06T03:41:35;74841.91;;;-145.72;100.00
15914;BME280;8055;51.930;8.840;2023-08-06T03:44:01;74831.56;;;-145.72;100.00
15914;BME280;8055;51.930;8.840;2023-08-06T03:46:29;74841.91;;;-145.72;100.00
15914;BME280;8055;51.930;8.840;2023-08-06T03:48:54;74843.97;;;-145.72;100.00
15914;BME280;8055;51.930;8.840;2023-08-06T03:51:19;74854.31;;;-145.72;100.00
15914;BME280;8055;51.930;8.840;2023-08-06T03:53:45;74848.13;;;-145.72;100.00
15914;BME280;8055;51.930;8.840;2023-08-06T03:56:10;74848.13;;;-145.72;100.00
15914;BME280;8055;51.930;8.840;2023-08-06T03:58:35;74852.25;;;-145.72;100.00
15914;BME280;8055;51.930;8.840;2023-08-06T04:01:02;74848.13;;;-145.72;100.00
15914;BME280;8055;51.930;8.840;2023-08-06T04:03:28;74841.91;;;-145.72;100.00
15914;BME280;8055;51.930;8.840;2023-08-06T04:05:54;74846.06;;;-145.72;100.00
15914;BME280;8055;51.930;8.840;2023-08-06T04:08:19;74841.91;;;-145.72;100.00
15914;BME280;8055;51.930;8.840;2023-08-06T04:10:45;74848.13;;;-145.72;100.00
15914;BME280;8055;51.930;8.840;2023-08-06T04:13:10;74848.13;;;-145.72;100.00
15914;BME280;8055;51.930;8.840;2023-08-06T04:15:35;74848.13;;;-145.72;100.00
15914;BME280;8055;51.930;8.840;2023-08-06T04:18:01;74850.19;;;-145.72;100.00
15914;BME280;8055;51.930;8.840;2023-08-06T04:20:26;74850.19;;;-145.72;100.00
15914;BME280;8055;51.930;8.840;2023-08-06T04:22:54;74858.47;;;-145.72;100.00
15914;BME280;8055;51.930;8.840;2023-08-06T04:25:20;74846.06;;;-145.72;100.00
15914;BME280;8055;51.930;8.840;2023-08-06T04:27:49;74852.25;;;-145.72;100.00
15914;BME280;8055;51.930;8.840;2023-08-06T04:30:14;74848.13;;;-145.72;100.00
15914;BME280;8055;51.930;8.840;2023-08-06T04:32:40;74843.97;;;-145.72;100.00
15914;BME280;8055;51.930;8.840;2023-08-06T04:35:06;74835.72;;;-145.72;100.00
15914;BME280;8055;51.930;8.840;2023-08-06T04:37:32;74839.84;;;-145.72;100.00
15914;BME280;8055;51.930;8.840;2023-08-06T04:39:57;74829.50;;;-145.72;100.00
15914;BME280;8055;51.930;8.840;2023-08-06T04:42:23;74823.28;;;-145.72;100.00
15914;BME280;8055;51.930;8.840;2023-08-06T04:44:48;74835.72;;;-145.72;100.00
15914;BME280;8055;51.930;8.840;2023-08-06T04:47:13;74823.28;;;-145.72;100.00
15914;BME280;8055;51.930;8.840;2023-08-06T04:49:39;74819.16;;;-145.72;100.00
15914;BME280;8055;51.930;8.840;2023-08-06T04:52:05;74819.16;;;-145.72;100.00
15914;BME280;8055;51.930;8.840;2023-08-06T04:54:30;74819.16;;;-145.72;100.00
15914;BME280;8055;51.930;8.840;2023-08-06T04:56:55;74823.28;;;-145.72;100.00
15914;BME280;8055;51.930;8.840;2023-08-06T04:59:21;74817.09;;;-145.72;100.00
15914;BME280;8055;51.930;8.840;2023-08-06T05:01:46;74815.03;;;-145.72;100.00
15914;BME280;8055;51.930;8.840;2023-08-06T05:04:11;74810.88;;;-145.72;100.00
15914;BME280;8055;51.930;8.840;2023-08-06T05:06:37;74812.94;;;-145.72;100.00
15914;BME280;8055;51.930;8.840;2023-08-06T05:09:05;74815.03;;;-145.72;100.00
15914;BME280;8055;51.930;8.840;2023-08-06T05:11:31;74808.81;;;-145.72;100.00
15914;BME280;8055;51.930;8.840;2023-08-06T05:13:56;74812.94;;;-145.72;100.00
15914;BME280;8055;51.930;8.840;2023-08-06T05:16:22;74812.94;;;-145.72;100.00
15914;BME280;8055;51.930;8.840;2023-08-06T05:18:47;74812.94;;;-145.72;100.00
15914;BME280;8055;51.930;8.840;2023-08-06T05:21:12;74815.03;;;-145.72;100.00
15914;BME280;8055;51.930;8.840;2023-08-06T05:23:38;74810.88;;;-145.72;100.00
15914;BME280;8055;51.930;8.840;2023-08-06T05:26:03;74810.88;;;-145.72;100.00
15914;BME280;8055;51.930;8.840;2023-08-06T05:28:28;74798.47;;;-145.72;100.00
15914;BME280;8055;51.930;8.840;2023-08-06T05:30:54;74798.47;;;-145.72;100.00
15914;BME280;8055;51.930;8.840;2023-08-06T05:33:20;74798.47;;;-145.72;100.00
15914;BME280;8055;51.930;8.840;2023-08-06T05:35:45;74790.19;;;-145.72;100.00
15914;BME280;8055;51.930;8.840;2023-08-06T05:38:10;74792.25;;;-145.72;100.00
15914;BME280;8055;51.930;8.840;2023-08-06T05:40:36;74786.06;;;-145.72;100.00
15914;BME280;8055;51.930;8.840;2023-08-06T05:43:01;74790.19;;;-145.72;100.00
15914;BME280;8055;51.930;8.840;2023-08-06T05:45:27;74786.06;;;-145.72;100.00
15914;BME280;8055;51.930;8.840;2023-08-06T05:47:52;74781.91;;;-145.72;100.00
15914;BME280;8055;51.930;8.840;2023-08-06T05:50:19;74786.06;;;-145.72;100.00
15914;BME280;8055;51.930;8.840;2023-08-06T05:52:45;74779.84;;;-145.72;100.00
15914;BME280;8055;51.930;8.840;2023-08-06T05:55:10;74771.56;;;-145.72;100.00
15914;BME280;8055;51.930;8.840;2023-08-06T05:57:36;74771.56;;;-145.72;100.00
15914;BME280;8055;51.930;8.840;2023-08-06T06:00:02;74769.50;;;-145.72;100.00
15914;BME280;8055;51.930;8.840;2023-08-06T06:02:27;74769.50;;;-145.72;100.00
15914;BME280;8055;51.930;8.840;2023-08-06T06:04:53;74757.09;;;-145.72;100.00
15914;BME280;8055;51.930;8.840;2023-08-06T06:07:18;74744.69;;;-145.72;100.00
15914;BME280;8055;51.930;8.840;2023-08-06T06:09:43;74744.69;;;-145.72;100.00
15914;BME280;8055;51.930;8.840;2023-08-06T06:12:09;74732.28;;;-145.72;100.00
15914;BME280;8055;51.930;8.840;2023-08-06T06:14:34;74715.72;;;-145.72;100.00
15914;BME280;8055;51.930;8.840;2023-08-06T06:17:00;74709.53;;;-145.72;100.00
15914;BME280;8055;51.930;8.840;2023-08-06T06:19:26;74690.91;;;-145.72;100.00
15914;BME280;8055;51.930;8.840;2023-08-06T06:21:52;74690.91;;;-145.72;100.00
15914;BME280;8055;51.930;8.840;2023-08-06T06:24:18;74688.84;;;-145.72;100.00
15914;BME280;8055;51.930;8.840;2023-08-06T06:26:44;74680.56;;;-145.72;100.00
15914;BME280;8055;51.930;8.840;2023-08-06T06:29:09;74674.34;;;-145.72;100.00
15914;BME280;8055;51.930;8.840;2023-08-06T06:31:34;74680.56;;;-145.72;100.00
15914;BME280;8055;51.930;8.840;2023-08-06T06:34:00;74688.84;;;-145.72;100.00
15914;BME280;8055;51.930;8.840;2023-08-06T06:36:26;74686.75;;;-145.72;100.00
15914;BME280;8055;51.930;8.840;2023-08-06T06:38:51;74676.41;;;-145.72;100.00
15914;BME280;8055;51.930;8.840;2023-08-06T06:41:16;74674.34;;;-145.72;100.00
15914;BME280;8055;51.930;8.840;2023-08-06T06:43:42;74674.34;;;-145.72;100.00
15914;BME280;8055;51.930;8.840;2023-08-06T06:46:07;74672.28;;;-145.72;100.00
15914;BME280;8055;51.930;8.840;2023-08-06T06:48:33;74670.22;;;-145.72;100.00
15914;BME280;8055;51.930;8.840;2023-08-06T06:50:59;74657.81;;;-145.72;100.00
15914;BME280;8055;51.930;8.840;2023-08-06T06:53:24;74649.53;;;-145.72;100.00
15914;BME280;8055;51.930;8.840;2023-08-06T06:55:53;74641.25;;;-145.72;100.00
15914;BME280;8055;51.930;8.840;2023-08-06T06:58:19;74635.03;;;-145.72;100.00
15914;BME280;8055;51.930;8.840;2023-08-06T07:00:46;74614.34;;;-145.72;100.00
15914;BME280;8055;51.930;8.840;2023-08-06T07:03:11;74597.81;;;-145.72;100.00
15914;BME280;8055;51.930;8.840;2023-08-06T07:05:37;74583.34;;;-145.72;100.00
15914;BME280;8055;51.930;8.840;2023-08-06T07:08:02;74579.19;;;-145.72;100.00
15914;BME280;8055;51.930;8.840;2023-08-06T07:10:28;74564.72;;;-145.72;100.00
15914;BME280;8055;51.930;8.840;2023-08-06T07:12:53;74556.44;;;-145.72;100.00
15914;BME280;8055;51.930;8.840;2023-08-06T07:15:19;74550.22;;;-145.72;100.00
15914;BME280;8055;51.930;8.840;2023-08-06T07:17:45;74539.88;;;-145.72;100.00
15914;BME280;8055;51.930;8.840;2023-08-06T07:20:10;74525.41;;;-145.72;100.00
15914;BME280;8055;51.930;8.840;2023-08-06T07:22:36;74521.28;;;-145.72;100.00
15914;BME280;8055;51.930;8.840;2023-08-06T07:25:02;74477.84;;;-145.72;100.00
15914;BME280;8055;51.930;8.840;2023-08-06T07:27:27;74467.50;;;-145.72;100.00
15914;BME280;8055;51.930;8.840;2023-08-06T07:29:52;74446.81;;;-145.72;100.00
15914;BME280;8055;51.930;8.840;2023-08-06T07:32:18;74432.31;;;-145.72;100.00
15914;BME280;8055;51.930;8.840;2023-08-06T07:34:43;74430.25;;;-145.72;100.00
15914;BME280;8055;51.930;8.840;2023-08-06T07:37:08;74405.44;;;-145.72;100.00
15914;BME280;8055;51.930;8.840;2023-08-06T07:39:34;74405.44;;;-145.72;100.00
15914;BME280;8055;51.930;8.840;2023-08-06T07:41:59;74386.81;;;-145.72;100.00
15914;BME280;8055;51.930;8.840;2023-08-06T07:44:27;74386.81;;;-145.72;100.00
15914;BME280;8055;51.930;8.840;2023-08-06T07:46:52;74355.78;;;-145.72;100.00
15914;BME280;8055;51.930;8.840;2023-08-06T07:49:18;74353.72;;;-145.72;100.00
15914;BME280;8055;51.930;8.840;2023-08-06T07:51:43;74312.34;;;-145.72;100.00
15914;BME280;8055;51.930;8.840;2023-08-06T07:54:09;74295.81;;;-145.72;100.00
15914;BME280;8055;51.930;8.840;2023-08-06T07:56:34;74310.28;;;-145.72;100.00
15914;BME280;8055;51.930;8.840;2023-08-06T07:59:01;74281.31;;;-145.72;100.00
15914;BME280;8055;51.930;8.840;2023-08-06T08:01:27;74268.91;;;-145.72;100.00
15914;BME280;8055;51.930;8.840;2023-08-06T08:03:52;74266.84;;;-145.72;100.00
15914;BME280;8055;51.930;8.840;2023-08-06T08:06:17;74285.47;;;-145.72;100.00
15914;BME280;8055;51.930;8.840;2023-08-06T08:08:43;74275.13;;;-145.72;100.00
15914;BME280;8055;51.930;8.840;2023-08-06T08:11:08;74256.50;;;-145.72;100.00
15914;BME280;8055;51.930;8.840;2023-08-06T08:13:34;74268.91;;;-145.72;100.00
15914;BME280;8055;51.930;8.840;2023-08-06T08:16:00;74258.56;;;-145.72;100.00
15914;BME280;8055;51.930;8.840;2023-08-06T08:18:26;74295.81;;;-145.72;100.00
15914;BME280;8055;51.930;8.840;2023-08-06T08:20:51;74297.88;;;-145.72;100.00
15914;BME280;8055;51.930;8.840;2023-08-06T08:23:16;74297.88;;;-145.72;100.00
15914;BME280;8055;51.930;8.840;2023-08-06T08:25:42;74293.72;;;-145.72;100.00
15914;BME280;8055;51.930;8.840;2023-08-06T08:28:07;74297.88;;;-145.72;100.00
15914;BME280;8055;51.930;8.840;2023-08-06T08:30:33;74312.34;;;-145.72;100.00
15914;BME280;8055;51.930;8.840;2023-08-06T08:32:59;74312.34;;;-145.72;100.00
15914;BME280;8055;51.930;8.840;2023-08-06T08:35:25;74304.06;;;-145.72;100.00
15914;BME280;8055;51.930;8.840;2023-08-06T08:37:50;74291.66;;;-145.72;100.00
15914;BME280;8055;51.930;8.840;2023-08-06T08:40:17;74289.59;;;-145.72;100.00
15914;BME280;8055;51.930;8.840;2023-08-06T08:42:43;74281.31;;;-145.72;100.00
15914;BME280;8055;51.930;8.840;2023-08-06T08:45:13;74277.19;;;-145.72;100.00
15914;BME280;8055;51.930;8.840;2023-08-06T08:47:41;74266.84;;;-145.72;100.00
15914;BME280;8055;51.930;8.840;2023-08-06T08:50:11;74246.16;;;-145.72;100.00
15914;BME280;8055;51.930;8.840;2023-08-06T08:52:39;74231.69;;;-145.72;100.00
15914;BME280;8055;51.930;8.840;2023-08-06T08:55:06;74217.19;;;-145.72;100.00
15914;BME280;8055;51.930;8.840;2023-08-06T08:57:32;74239.94;;;-145.72;100.00
15914;BME280;8055;51.930;8.840;2023-08-06T08:59:57;74237.88;;;-145.72;100.00
15914;BME280;8055;51.930;8.840;2023-08-06T09:02:25;74231.69;;;-145.72;100.00
15914;BME280;8055;51.930;8.840;2023-08-06T09:04:55;74242.03;;;-145.72;100.00
15914;BME280;8055;51.930;8.840;2023-08-06T09:07:21;74242.03;;;-145.72;100.00
15914;BME280;8055;51.930;8.840;2023-08-06T09:09:49;74275.13;;;-145.72;100.00
15914;BME280;8055;51.930;8.840;2023-08-06T09:12:16;74266.84;;;-145.72;100.00
15914;BME280;8055;51.930;8.840;2023-08-06T09:14:42;74258.56;;;-145.72;100.00
15914;BME280;8055;51.930;8.840;2023-08-06T09:17:08;74244.09;;;-145.72;100.00
15914;BME280;8055;51.930;8.840;2023-08-06T09:19:34;74194.44;;;-145.72;100.00
15914;BME280;8055;51.930;8.840;2023-08-06T09:21:59;74157.22;;;-145.72;100.00
15914;BME280;8055;51.930;8.840;2023-08-06T09:24:25;74095.16;;;-145.72;100.00
15914;BME280;8055;51.930;8.840;2023-08-06T09:26:52;74053.81;;;-145.72;95.66
15914;BME280;8055;51.930;8.840;2023-08-06T09:29:17;74055.88;;;-145.72;87.57
15914;BME280;8055;51.930;8.840;2023-08-06T09:31:44;74041.38;;;-145.72;92.65
15914;BME280;8055;51.930;8.840;2023-08-06T09:34:15;74047.59;;;-145.72;88.31
15914;BME280;8055;51.930;8.840;2023-08-06T09:36:52;74066.22;;;-145.72;88.99
15914;BME280;8055;51.930;8.840;2023-08-06T09:39:19;74113.78;;;-145.72;93.40
15914;BME280;8055;51.930;8.840;2023-08-06T09:41:46;74128.25;;;-145.72;94.02
15914;BME280;8055;51.930;8.840;2023-08-06T09:46:42;74140.66;;;-145.72;98.76
15914;BME280;8055;51.930;8.840;2023-08-06T09:49:07;74167.56;;;-145.72;92.52
15914;BME280;8055;51.930;8.840;2023-08-06T09:51:34;74157.22;;;-145.72;100.00
15914;BME280;8055;51.930;8.840;2023-08-06T09:54:01;74177.91;;;-145.72;99.23
15914;BME280;8055;51.930;8.840;2023-08-06T09:56:26;74202.72;;;-145.72;98.76
15914;BME280;8055;51.930;8.840;2023-08-06T09:58:53;74202.72;;;-145.72;100.00
15914;BME280;8055;51.930;8.840;2023-08-06T10:01:21;74206.84;;;-145.72;100.00
15914;BME280;8055;51.930;8.840;2023-08-06T10:03:48;74219.28;;;-145.72;100.00
15914;BME280;8055;51.930;8.840;2023-08-06T10:06:14;74223.41;;;-145.72;100.00
15914;BME280;8055;51.930;8.840;2023-08-06T10:08:40;74239.94;;;-145.72;100.00
15914;BME280;8055;51.930;8.840;2023-08-06T10:11:07;74227.53;;;-145.72;100.00
15914;BME280;8055;51.930;8.840;2023-08-06T10:13:33;74217.19;;;-145.72;100.00
15914;BME280;8055;51.930;8.840;2023-08-06T10:16:01;74219.28;;;-145.72;100.00
15914;BME280;8055;51.930;8.840;2023-08-06T10:18:27;74229.63;;;-145.72;100.00
15914;BME280;8055;51.930;8.840;2023-08-06T10:20:53;74219.28;;;-145.72;100.00
15914;BME280;8055;51.930;8.840;2023-08-06T10:23:19;74204.78;;;-145.72;100.00
15914;BME280;8055;51.930;8.840;2023-08-06T10:25:53;74215.13;;;-145.72;96.07
15914;BME280;8055;51.930;8.840;2023-08-06T10:28:20;74194.44;;;-145.72;94.97
15914;BME280;8055;51.930;8.840;2023-08-06T10:30:47;74184.09;;;-145.72;97.75
15914;BME280;8055;51.930;8.840;2023-08-06T10:33:13;74138.59;;;-145.72;99.19
15914;BME280;8055;51.930;8.840;2023-08-06T10:38:14;74051.72;;;-145.72;93.31
15914;BME280;8055;51.930;8.840;2023-08-06T10:40:43;74033.13;;;-145.72;88.57
15914;BME280;8055;51.930;8.840;2023-08-06T10:43:26;74006.22;;;-145.72;84.27
15914;BME280;8055;51.930;8.840;2023-08-06T10:45:52;73940.03;;;-145.72;89.78
15914;BME280;8055;51.930;8.840;2023-08-06T10:48:38;73886.28;;;-145.72;86.54
15914;BME280;8055;51.930;8.840;2023-08-06T10:51:06;73919.34;;;-145.72;76.50
15914;BME280;8055;51.930;8.840;2023-08-06T10:53:32;73886.28;;;-145.72;81.03
15914;BME280;8055;51.930;8.840;2023-08-06T10:55:58;73890.41;;;-145.72;76.33
15914;BME280;8055;51.930;8.840;2023-08-06T10:58:23;73940.03;;;-145.72;73.83
15914;BME280;8055;51.930;8.840;2023-08-06T11:00:48;73966.94;;;-145.72;74.56
15914;BME280;8055;51.930;8.840;2023-08-06T11:03:14;73956.59;;;-145.72;75.97
15914;BME280;8055;51.930;8.840;2023-08-06T11:05:40;73981.41;;;-145.72;75.02
15914;BME280;8055;51.930;8.840;2023-08-06T11:08:05;73962.78;;;-145.72;76.58
15914;BME280;8055;51.930;8.840;2023-08-06T11:10:33;73937.97;;;-145.72;77.48
15914;BME280;8055;51.930;8.840;2023-08-06T11:13:01;73925.56;;;-145.72;74.81
15914;BME280;8055;51.930;8.840;2023-08-06T11:15:27;73875.94;;;-145.72;78.83
15914;BME280;8055;51.930;8.840;2023-08-06T11:17:53;73867.66;;;-145.72;75.32
15914;BME280;8055;51.930;8.840;2023-08-06T11:20:20;73830.44;;;-145.72;76.55
15914;BME280;8055;51.930;8.840;2023-08-06T11:22:46;73778.72;;;-145.72;77.78
15914;BME280;8055;51.930;8.840;2023-08-06T11:25:12;73747.69;;;-145.72;77.14
15914;BME280;8055;51.930;8.840;2023-08-06T11:27:37;73731.16;;;-145.72;72.98
15914;BME280;8055;51.930;8.840;2023-08-06T11:30:03;73739.44;;;-145.72;69.31
15914;BME280;8055;51.930;8.840;2023-08-06T11:32:29;73739.44;;;-145.72;67.36
15914;BME280;8055;51.930;8.840;2023-08-06T11:34:55;73716.69;;;-145.72;71.05
15914;BME280;8055;51.930;8.840;2023-08-06T11:37:21;73727.00;;;-145.72;69.92
15914;BME280;8055;51.930;8.840;2023-08-06T11:39:48;73685.66;;;-145.72;71.31
15914;BME280;8055;51.930;8.840;2023-08-06T11:42:14;73648.44;;;-145.72;67.91
15914;BME280;8055;51.930;8.840;2023-08-06T11:44:40;73594.66;;;-145.72;70.05
15914;BME280;8055;51.930;8.840;2023-08-06T11:47:12;73524.34;;;-145.72;68.97
15914;BME280;8055;51.930;8.840;2023-08-06T11:49:48;73505.72;;;-145.72;65.37
15914;BME280;8055;51.930;8.840;2023-08-06T11:52:22;73497.44;;;-145.72;65.01
15914;BME280;8055;51.930;8.840;2023-08-06T11:55:05;73547.09;;;-145.72;65.73
15914;BME280;8055;51.930;8.840;2023-08-06T11:57:33;73586.38;;;-145.72;64.79
15914;BME280;8055;51.930;8.840;2023-08-06T12:00:09;73646.34;;;-145.72;64.90
15914;BME280;8055;51.930;8.840;2023-08-06T12:02:35;73718.75;;;-145.72;66.72
15914;BME280;8055;51.930;8.840;2023-08-06T12:05:15;73751.84;;;-145.72;70.66
15914;BME280;8055;51.930;8.840;2023-08-06T12:07:43;73801.47;;;-145.72;70.41
15914;BME280;8055;51.930;8.840;2023-08-06T12:10:09;73811.81;;;-145.72;73.41
15914;BME280;8055;51.930;8.840;2023-08-06T12:12:35;73822.16;;;-145.72;72.33
15914;BME280;8055;51.930;8.840;2023-08-06T12:15:02;73859.38;;;-145.72;74.21
15914;BME280;8055;51.930;8.840;2023-08-06T12:17:28;73882.13;;;-145.72;74.78
15914;BME280;8055;51.930;8.840;2023-08-06T12:19:53;73888.34;;;-145.72;79.39
15914;BME280;8055;51.930;8.840;2023-08-06T12:22:19;73896.59;;;-145.72;80.46
15914;BME280;8055;51.930;8.840;2023-08-06T12:24:46;73906.94;;;-145.72;77.36
15914;BME280;8055;51.930;8.840;2023-08-06T12:27:12;73904.88;;;-145.72;78.34
15914;BME280;8055;51.930;8.840;2023-08-06T12:29:41;73900.75;;;-145.72;78.90
15914;BME280;8055;51.930;8.840;2023-08-06T12:32:07;73913.16;;;-145.72;75.83
15914;BME280;8055;51.930;8.840;2023-08-06T12:34:33;73911.09;;;-145.72;77.71
15914;BME280;8055;51.930;8.840;2023-08-06T12:36:58;73904.88;;;-145.72;78.80
15914;BME280;8055;51.930;8.840;2023-08-06T12:39:23;73902.81;;;-145.72;79.02
15914;BME280;8055;51.930;8.840;2023-08-06T12:41:49;73898.69;;;-145.72;76.43
15914;BME280;8055;51.930;8.840;2023-08-06T12:44:14;73904.88;;;-145.72;78.72
15914;BME280;8055;51.930;8.840;2023-08-06T12:46:40;73904.88;;;-145.72;81.54